createdAt,value
2022-08-28T00:00:46.754Z,10.73
2022-08-28T00:03:15.430Z,13.23
2022-08-28T00:05:45.866Z,8.68
2022-08-28T00:08:15.476Z,11.77
2022-08-28T00:10:44.293Z,11.27
2022-08-28T00:13:18.622Z,8.57
2022-08-28T00:15:52.884Z,10.50
2022-08-28T00:18:21.209Z,13.13
2022-08-28T00:20:51.085Z,8.57
2022-08-28T00:23:19.172Z,14.60
2022-08-28T00:25:47.609Z,9.57
2022-08-28T00:28:24.153Z,9.57
2022-08-28T00:30:54.988Z,9.50
2022-08-28T00:33:30.334Z,9.73
2022-08-28T00:36:00.994Z,13.32
2022-08-28T00:38:29.913Z,10.77
2022-08-28T00:41:00.742Z,9.85
2022-08-28T00:43:40.090Z,12.27
2022-08-28T00:46:15.915Z,7.32
2022-08-28T00:48:44.218Z,9.73
2022-08-28T00:51:32.690Z,9.95
2022-08-28T00:54:05.471Z,11.38
2022-08-28T00:59:11.738Z,9.30
2022-08-28T01:01:39.893Z,11.63
2022-08-28T01:04:08.209Z,9.00
2022-08-28T01:06:36.959Z,9.55
2022-08-28T01:09:06.797Z,12.02
2022-08-28T01:11:35.142Z,8.57
2022-08-28T01:14:05.303Z,11.75
2022-08-28T01:16:34.577Z,9.98
2022-08-28T01:19:07.818Z,8.38
2022-08-28T01:22:00.407Z,7.65
2022-08-28T01:24:28.951Z,12.68
2022-08-28T01:26:57.981Z,13.23
2022-08-28T01:29:27.610Z,8.27
2022-08-28T01:31:55.575Z,10.05
2022-08-28T01:34:23.545Z,14.25
2022-08-28T01:36:52.417Z,7.45
2022-08-28T01:39:25.150Z,13.63
2022-08-28T01:41:55.485Z,7.75
2022-08-28T01:44:26.977Z,10.73
2022-08-28T01:46:58.315Z,13.82
2022-08-28T01:49:29.279Z,13.85
2022-08-28T01:51:58.258Z,11.20
2022-08-28T01:54:28.707Z,9.43
2022-08-28T01:56:56.659Z,12.15
2022-08-28T01:59:24.685Z,11.93
2022-08-28T02:01:52.596Z,10.35
2022-08-28T02:04:21.058Z,12.35
2022-08-28T02:06:57.410Z,8.02
2022-08-28T02:09:25.345Z,10.50
2022-08-28T02:11:53.957Z,10.60
2022-08-28T02:14:22.513Z,12.40
2022-08-28T02:16:51.160Z,8.77
2022-08-28T02:19:20.142Z,8.07
2022-08-28T02:21:48.323Z,7.70
2022-08-28T02:24:17.172Z,12.85
2022-08-28T02:26:45.306Z,15.02
2022-08-28T02:29:13.486Z,10.30
2022-08-28T02:31:41.323Z,8.73
2022-08-28T02:34:09.401Z,10.15
2022-08-28T02:36:42.591Z,8.98
2022-08-28T02:39:11.319Z,8.23
2022-08-28T02:41:39.216Z,10.38
2022-08-28T02:44:07.482Z,11.68
2022-08-28T02:46:35.316Z,10.43
2022-08-28T02:49:03.451Z,10.50
2022-08-28T02:51:33.381Z,9.27
2022-08-28T02:54:01.581Z,10.02
2022-08-28T02:56:30.269Z,7.18
2022-08-28T02:58:58.752Z,10.70
2022-08-28T03:01:26.632Z,7.05
2022-08-28T03:03:54.551Z,10.55
2022-08-28T03:06:23.049Z,11.10
2022-08-28T03:08:50.915Z,10.52
2022-08-28T03:11:19.071Z,10.43
2022-08-28T03:13:46.969Z,9.38
2022-08-28T03:16:14.943Z,11.15
2022-08-28T03:18:43.204Z,9.30
2022-08-28T03:21:11.887Z,11.30
2022-08-28T03:23:40.403Z,11.60
2022-08-28T03:26:19.935Z,6.97
2022-08-28T03:28:53.099Z,10.27
2022-08-28T03:31:25.297Z,11.60
2022-08-28T03:33:53.963Z,8.43
2022-08-28T03:36:26.954Z,9.68
2022-08-28T03:38:57.060Z,10.93
2022-08-28T03:41:30.047Z,9.73
2022-08-28T03:43:59.960Z,7.90
2022-08-28T03:46:29.656Z,13.45
2022-08-28T03:48:57.737Z,9.35
2022-08-28T03:51:29.717Z,10.35
2022-08-28T03:53:59.922Z,13.82
2022-08-28T03:56:29.928Z,14.07
2022-08-28T03:59:00.478Z,9.00
2022-08-28T04:01:29.052Z,13.00
2022-08-28T04:03:57.495Z,8.55
2022-08-28T04:06:25.756Z,8.75
2022-08-28T04:08:53.701Z,11.07
2022-08-28T04:11:21.878Z,9.27
2022-08-28T04:13:49.806Z,9.80
2022-08-28T04:16:19.030Z,10.65
2022-08-28T04:18:50.248Z,11.32
2022-08-28T04:21:26.015Z,7.03
2022-08-28T04:23:54.411Z,14.32
2022-08-28T04:26:25.646Z,7.97
2022-08-28T04:28:55.993Z,12.63
2022-08-28T04:31:32.236Z,9.00
2022-08-28T04:34:02.527Z,9.98
2022-08-28T04:36:31.047Z,9.48
2022-08-28T04:38:59.287Z,15.25
2022-08-28T04:41:27.716Z,11.95
2022-08-28T04:43:59.908Z,8.50
2022-08-28T04:46:30.983Z,19.13
2022-08-28T04:48:59.771Z,10.48
2022-08-28T04:51:28.254Z,11.93
2022-08-28T04:53:57.069Z,7.13
2022-08-28T04:56:26.604Z,8.23
2022-08-28T04:58:55.267Z,10.43
2022-08-28T05:01:27.580Z,10.35
2022-08-28T05:03:59.070Z,10.93
2022-08-28T05:06:29.271Z,8.98
2022-08-28T05:08:59.968Z,11.10
2022-08-28T05:11:34.519Z,9.95
2022-08-28T05:14:23.133Z,9.23
2022-08-28T05:16:53.095Z,15.05
2022-08-28T05:19:21.725Z,10.45
2022-08-28T05:21:49.782Z,11.77
2022-08-28T05:24:18.750Z,6.38
2022-08-28T05:26:48.296Z,13.13
2022-08-28T05:29:19.827Z,8.88
2022-08-28T05:31:48.525Z,7.88
2022-08-28T05:34:17.302Z,7.97
2022-08-28T05:36:45.145Z,9.18
2022-08-28T05:39:13.700Z,8.82
2022-08-28T05:41:43.616Z,5.97
2022-08-28T05:44:13.734Z,6.45
2022-08-28T05:46:43.708Z,14.82
2022-08-28T05:49:13.434Z,7.43
2022-08-28T05:51:42.729Z,11.30
2022-08-28T05:54:11.898Z,5.05
2022-08-28T05:56:42.049Z,7.93
2022-08-28T05:59:11.171Z,6.95
2022-08-28T06:01:44.765Z,6.25
2022-08-28T06:04:30.118Z,7.63
2022-08-28T06:06:58.268Z,8.68
2022-08-28T06:09:29.613Z,6.63
2022-08-28T06:12:02.154Z,7.05
2022-08-28T06:14:31.392Z,5.03
2022-08-28T06:16:59.981Z,6.93
2022-08-28T06:19:30.077Z,9.02
2022-08-28T06:22:07.098Z,10.48
2022-08-28T06:24:39.487Z,6.43
2022-08-28T06:27:08.474Z,8.10
2022-08-28T06:29:37.769Z,8.32
2022-08-28T06:32:07.645Z,8.60
2022-08-28T06:34:36.483Z,6.93
2022-08-28T06:37:04.641Z,8.25
2022-08-28T06:39:32.491Z,5.85
2022-08-28T06:42:00.327Z,6.72
2022-08-28T06:44:32.061Z,7.88
2022-08-28T06:47:00.363Z,2.90
2022-08-28T06:49:29.378Z,5.25
2022-08-28T06:51:59.926Z,6.63
2022-08-28T06:54:30.847Z,8.60
2022-08-28T06:57:01.615Z,7.40
2022-08-28T06:59:29.652Z,6.20
2022-08-28T07:01:57.909Z,7.22
2022-08-28T07:04:25.993Z,6.93
2022-08-28T07:06:55.002Z,7.22
2022-08-28T07:09:23.570Z,8.20
2022-08-28T07:11:51.819Z,7.43
2022-08-28T07:14:19.721Z,7.70
2022-08-28T07:16:47.587Z,4.97
2022-08-28T07:19:15.771Z,10.68
2022-08-28T07:21:45.902Z,5.60
2022-08-28T07:24:15.796Z,9.13
2022-08-28T07:26:47.167Z,5.55
2022-08-28T07:29:15.751Z,7.57
2022-08-28T07:31:46.933Z,6.25
2022-08-28T07:34:15.918Z,7.97
2022-08-28T07:36:44.656Z,7.68
2022-08-28T07:39:14.834Z,6.22
2022-08-28T07:41:43.461Z,4.03
2022-08-28T07:44:31.683Z,6.45
2022-08-28T07:47:04.487Z,5.25
2022-08-28T07:49:34.114Z,6.72
2022-08-28T07:52:02.777Z,6.00
2022-08-28T07:54:30.726Z,7.47
2022-08-28T07:56:59.016Z,5.45
2022-08-28T07:59:28.797Z,4.85
2022-08-28T08:02:05.812Z,6.93
2022-08-28T08:04:36.648Z,5.38
2022-08-28T08:07:05.159Z,8.50
2022-08-28T08:09:38.981Z,5.13
2022-08-28T08:12:11.188Z,5.70
2022-08-28T08:14:40.599Z,6.47
2022-08-28T08:17:09.809Z,4.93
2022-08-28T08:19:38.062Z,3.35
2022-08-28T08:22:08.432Z,4.63
2022-08-28T08:24:38.946Z,5.55
2022-08-28T08:27:06.839Z,6.00
2022-08-28T08:29:37.001Z,4.78
2022-08-28T08:32:08.470Z,4.70
2022-08-28T08:34:40.055Z,5.85
2022-08-28T08:37:08.838Z,5.90
2022-08-28T08:39:37.836Z,4.63
2022-08-28T08:42:20.470Z,6.70
2022-08-28T08:44:49.705Z,4.10
2022-08-28T08:47:43.136Z,4.13
2022-08-28T08:50:24.038Z,9.73
2022-08-28T08:53:23.008Z,4.88
2022-08-28T08:55:54.416Z,4.90
2022-08-28T08:58:34.328Z,7.10
2022-08-28T09:01:31.690Z,5.13
2022-08-28T09:04:40.221Z,4.53
2022-08-28T09:07:22.519Z,5.60
2022-08-28T09:09:57.934Z,5.88
2022-08-28T09:12:35.462Z,4.88
2022-08-28T09:15:32.341Z,3.60
2022-08-28T09:18:14.195Z,5.05
2022-08-28T09:20:44.131Z,6.13
2022-08-28T09:23:13.147Z,8.43
2022-08-28T09:25:44.891Z,6.35
2022-08-28T09:28:37.815Z,8.52
2022-08-28T09:31:10.448Z,3.88
2022-08-28T09:33:46.304Z,3.97
2022-08-28T09:36:27.261Z,4.97
2022-08-28T09:39:24.386Z,4.03
2022-08-28T09:42:39.908Z,5.15
2022-08-28T09:45:22.405Z,4.25
2022-08-28T09:47:54.125Z,2.85
2022-08-28T09:50:27.932Z,5.20
2022-08-28T09:53:11.547Z,3.88
2022-08-28T09:55:44.472Z,4.70
2022-08-28T09:58:16.787Z,4.05
2022-08-28T10:01:00.055Z,3.92
2022-08-28T10:03:37.789Z,5.50
2022-08-28T10:06:28.463Z,6.28
2022-08-28T10:09:24.904Z,6.25
2022-08-28T10:12:20.414Z,4.32
2022-08-28T10:15:22.342Z,3.42
2022-08-28T10:18:30.314Z,1.65
2022-08-28T10:21:12.953Z,3.60
2022-08-28T10:24:28.511Z,5.15
2022-08-28T10:27:16.458Z,3.97
2022-08-28T10:30:13.327Z,4.03
2022-08-28T10:32:53.654Z,3.90
2022-08-28T10:35:53.059Z,3.70
2022-08-28T10:38:26.887Z,8.30
2022-08-28T10:41:09.866Z,4.10
2022-08-28T10:43:48.487Z,4.35
2022-08-28T10:46:42.572Z,3.53
2022-08-28T10:49:32.371Z,2.40
2022-08-28T10:52:09.059Z,5.15
2022-08-28T10:54:56.959Z,2.88
2022-08-28T10:57:39.944Z,4.18
2022-08-28T11:00:13.671Z,2.88
2022-08-28T11:02:46.103Z,4.25
2022-08-28T11:05:15.049Z,3.95
2022-08-28T11:07:48.947Z,2.45
2022-08-28T11:10:19.682Z,4.70
2022-08-28T11:12:51.354Z,4.07
2022-08-28T11:15:36.456Z,3.05
2022-08-28T11:18:14.199Z,5.18
2022-08-28T11:21:10.945Z,5.07
2022-08-28T11:23:48.308Z,3.72
2022-08-28T11:26:31.583Z,4.15
2022-08-28T11:29:03.188Z,4.20
2022-08-28T11:31:36.734Z,3.90
2022-08-28T11:34:08.910Z,2.28
2022-08-28T11:36:41.276Z,3.97
2022-08-28T11:39:21.376Z,2.60
2022-08-28T11:42:09.865Z,2.97
2022-08-28T11:44:44.117Z,4.50
2022-08-28T11:47:39.501Z,4.65
2022-08-28T11:50:28.293Z,3.95
2022-08-28T11:53:33.082Z,5.55
2022-08-28T11:56:13.772Z,2.75
2022-08-28T11:59:14.923Z,4.90
2022-08-28T12:01:43.227Z,4.10
2022-08-28T12:04:24.711Z,5.03
2022-08-28T12:07:12.698Z,4.13
2022-08-28T12:09:48.566Z,3.92
2022-08-28T12:12:25.239Z,6.15
2022-08-28T12:14:57.679Z,5.28
2022-08-28T12:17:31.474Z,3.92
2022-08-28T12:20:17.061Z,2.97
2022-08-28T12:22:53.272Z,2.30
2022-08-28T12:25:38.967Z,3.38
2022-08-28T12:28:58.748Z,5.15
2022-08-28T12:32:11.587Z,2.38
2022-08-28T12:34:50.771Z,3.78
2022-08-28T12:37:52.263Z,5.50
2022-08-28T12:40:38.073Z,4.32
2022-08-28T12:43:10.570Z,4.68
2022-08-28T12:45:58.383Z,5.20
2022-08-28T12:48:52.290Z,3.17
2022-08-28T12:51:25.420Z,5.80
2022-08-28T12:53:56.699Z,3.55
2022-08-28T12:56:30.124Z,4.20
2022-08-28T12:59:27.091Z,2.37
2022-08-28T13:02:01.306Z,3.78
2022-08-28T13:04:34.356Z,3.90
2022-08-28T13:07:13.510Z,2.38
2022-08-28T13:09:50.986Z,3.78
2022-08-28T13:12:54.537Z,2.85
2022-08-28T13:15:50.921Z,3.28
2022-08-28T13:18:39.112Z,4.25
2022-08-28T13:21:25.556Z,6.50
2022-08-28T13:27:14.668Z,4.03
2022-08-28T13:30:44.565Z,2.78
2022-08-28T13:33:23.719Z,2.88
2022-08-28T13:35:53.605Z,3.03
2022-08-28T13:38:24.028Z,2.63
2022-08-28T13:41:03.596Z,4.45
2022-08-28T13:43:45.379Z,3.83
2022-08-28T13:46:13.350Z,5.68
2022-08-28T13:48:41.097Z,4.80
2022-08-28T13:51:16.379Z,2.53
2022-08-28T13:53:50.647Z,4.40
2022-08-28T13:56:23.630Z,4.20
2022-08-28T13:58:57.567Z,5.57
2022-08-28T14:01:48.067Z,8.23
2022-08-28T14:04:17.427Z,5.75
2022-08-28T14:06:45.651Z,4.78
2022-08-28T14:09:17.805Z,5.20
2022-08-28T14:11:46.921Z,4.43
2022-08-28T14:14:15.812Z,3.58
2022-08-28T14:16:45.475Z,4.90
2022-08-28T14:19:13.404Z,6.25
2022-08-28T14:21:43.971Z,5.78
2022-08-28T14:24:12.503Z,4.47
2022-08-28T14:26:41.968Z,3.97
2022-08-28T14:29:15.275Z,3.28
2022-08-28T14:31:44.744Z,5.97
2022-08-28T14:34:15.441Z,3.28
2022-08-28T14:36:43.714Z,2.95
2022-08-28T14:39:12.975Z,2.45
2022-08-28T14:41:47.398Z,2.78
2022-08-28T14:46:45.695Z,3.95
2022-08-28T14:49:15.990Z,3.13
2022-08-28T14:51:45.631Z,3.58
2022-08-28T14:54:16.001Z,2.85
2022-08-28T14:56:47.343Z,2.35
2022-08-28T14:59:26.987Z,4.05
2022-08-28T15:02:00.087Z,4.60
2022-08-28T15:04:35.463Z,5.15
2022-08-28T15:07:10.894Z,5.03
2022-08-28T15:09:42.485Z,3.92
2022-08-28T15:12:11.376Z,3.70
2022-08-28T15:14:39.473Z,3.90
2022-08-28T15:17:10.296Z,4.80
2022-08-28T15:19:40.728Z,3.03
2022-08-28T15:22:13.102Z,6.22
2022-08-28T15:27:25.877Z,2.10
2022-08-28T15:29:54.212Z,5.78
2022-08-28T15:32:23.816Z,5.72
2022-08-28T15:34:53.638Z,3.70
2022-08-28T15:37:25.551Z,3.05
2022-08-28T15:40:14.886Z,5.43
2022-08-28T15:42:45.880Z,4.45
2022-08-28T15:45:14.077Z,3.85
2022-08-28T15:47:45.727Z,5.40
2022-08-28T15:50:16.713Z,2.80
2022-08-28T15:52:48.727Z,3.03
2022-08-28T15:55:17.807Z,4.22
2022-08-28T15:57:46.904Z,3.15
2022-08-28T16:00:16.345Z,4.25
2022-08-28T16:02:44.801Z,3.85
2022-08-28T16:05:13.267Z,3.88
2022-08-28T16:07:41.316Z,3.10
2022-08-28T16:10:13.516Z,3.30
2022-08-28T16:12:41.709Z,3.67
2022-08-28T16:15:10.788Z,3.83
2022-08-28T16:17:39.223Z,2.58
2022-08-28T16:20:13.140Z,2.33
2022-08-28T16:22:41.982Z,1.88
2022-08-28T16:25:10.433Z,3.95
2022-08-28T16:27:39.420Z,3.67
2022-08-28T16:30:15.666Z,3.42
2022-08-28T16:32:46.816Z,2.25
2022-08-28T16:35:16.245Z,1.52
2022-08-28T16:37:44.931Z,2.58
2022-08-28T16:40:15.157Z,3.45
2022-08-28T16:42:51.652Z,3.42
2022-08-28T16:45:20.799Z,3.17
2022-08-28T16:47:49.919Z,3.17
2022-08-28T16:50:19.743Z,5.47
2022-08-28T16:52:47.993Z,3.38
2022-08-28T16:55:16.442Z,3.17
2022-08-28T16:57:45.251Z,4.57
2022-08-28T17:00:15.006Z,3.42
2022-08-28T17:02:43.736Z,4.50
2022-08-28T17:05:16.893Z,4.40
2022-08-28T17:07:53.754Z,3.45
2022-08-28T17:10:24.650Z,3.92
2022-08-28T17:12:53.237Z,2.22
2022-08-28T17:15:22.398Z,4.80
2022-08-28T17:17:51.428Z,2.83
2022-08-28T17:20:38.528Z,2.83
2022-08-28T17:23:09.315Z,2.50
2022-08-28T17:25:40.714Z,5.80
2022-08-28T17:28:12.743Z,4.93
2022-08-28T17:30:41.005Z,5.68
2022-08-28T17:33:08.933Z,4.07
2022-08-28T17:35:42.033Z,4.00
2022-08-28T17:38:10.310Z,2.58
2022-08-28T17:40:39.252Z,4.70
2022-08-28T17:43:08.965Z,3.22
2022-08-28T17:45:36.898Z,4.25
2022-08-28T17:48:10.815Z,3.75
2022-08-28T17:50:42.266Z,3.78
2022-08-28T17:53:10.216Z,3.65
2022-08-28T17:55:38.016Z,3.83
2022-08-28T17:58:06.988Z,6.22
2022-08-28T18:00:35.189Z,3.83
2022-08-28T18:03:03.560Z,3.53
2022-08-28T18:05:31.511Z,4.20
2022-08-28T18:07:59.614Z,5.05
2022-08-28T18:10:27.720Z,3.78
2022-08-28T18:12:57.639Z,6.93
2022-08-28T18:15:26.101Z,3.63
2022-08-28T18:17:55.789Z,4.60
2022-08-28T18:20:25.279Z,4.80
2022-08-28T18:22:54.090Z,4.10
2022-08-28T18:25:40.695Z,5.25
2022-08-28T18:28:14.746Z,6.40
2022-08-28T18:30:44.906Z,3.80
2022-08-28T18:33:14.875Z,4.97
2022-08-28T18:35:49.228Z,7.25
2022-08-28T18:40:46.900Z,3.40
2022-08-28T18:43:17.344Z,3.95
2022-08-28T18:45:45.372Z,2.38
2022-08-28T18:48:13.602Z,4.15
2022-08-28T18:50:46.681Z,5.78
2022-08-28T18:53:20.502Z,4.15
2022-08-28T18:55:51.101Z,4.47
2022-08-28T18:58:21.578Z,5.85
2022-08-28T19:00:50.060Z,3.80
2022-08-28T19:03:20.748Z,5.70
2022-08-28T19:05:49.435Z,4.07
2022-08-28T19:08:17.513Z,3.83
2022-08-28T19:10:45.484Z,3.50
2022-08-28T19:13:13.773Z,5.13
2022-08-28T19:15:41.981Z,6.13
2022-08-28T19:18:09.907Z,5.60
2022-08-28T19:20:37.897Z,9.32
2022-08-28T19:23:05.948Z,7.45
2022-08-28T19:25:36.886Z,6.35
2022-08-28T19:28:05.061Z,11.80
2022-08-28T19:30:35.478Z,6.57
2022-08-28T19:33:08.466Z,5.40
2022-08-28T19:35:36.587Z,8.07
2022-08-28T19:38:04.639Z,5.38
2022-08-28T19:40:33.659Z,5.63
2022-08-28T19:43:10.633Z,6.32
2022-08-28T19:45:45.431Z,6.10
2022-08-28T19:48:13.506Z,4.00
2022-08-28T19:50:42.206Z,2.45
2022-08-28T19:53:10.966Z,4.97
2022-08-28T19:55:38.927Z,4.70
2022-08-28T19:58:10.842Z,5.50
2022-08-28T20:00:38.966Z,4.32
2022-08-28T20:03:06.967Z,4.32
2022-08-28T20:05:35.106Z,4.80
2022-08-28T20:08:08.729Z,9.98
2022-08-28T20:10:39.158Z,4.38
2022-08-28T20:13:11.313Z,5.15
2022-08-28T20:15:42.907Z,5.28
2022-08-28T20:18:12.110Z,5.50
2022-08-28T20:20:43.092Z,4.78
2022-08-28T20:23:12.001Z,6.65
2022-08-28T20:25:48.341Z,6.43
2022-08-28T20:28:20.226Z,8.23
2022-08-28T20:30:48.571Z,4.43
2022-08-28T20:33:16.802Z,7.47
2022-08-28T20:35:44.802Z,9.95
2022-08-28T20:38:13.470Z,6.13
2022-08-28T20:40:41.745Z,6.13
2022-08-28T20:43:10.004Z,6.75
2022-08-28T20:45:38.290Z,5.35
2022-08-28T20:48:09.195Z,7.25
2022-08-28T20:50:39.807Z,4.82
2022-08-28T20:53:07.791Z,6.80
2022-08-28T20:55:36.555Z,5.60
2022-08-28T20:58:04.521Z,4.47
2022-08-28T21:00:32.617Z,7.47
2022-08-28T21:03:00.581Z,5.68
2022-08-28T21:05:30.407Z,6.65
2022-08-28T21:07:58.757Z,8.77
2022-08-28T21:10:27.166Z,4.80
2022-08-28T21:12:55.237Z,5.65
2022-08-28T21:15:23.482Z,5.63
2022-08-28T21:17:51.469Z,4.53
2022-08-28T21:20:21.416Z,9.85
2022-08-28T21:22:50.703Z,9.45
2022-08-28T21:25:21.126Z,4.95
2022-08-28T21:27:49.184Z,8.07
2022-08-28T21:30:19.623Z,4.75
2022-08-28T21:32:51.234Z,5.18
2022-08-28T21:35:21.786Z,7.82
2022-08-28T21:37:49.855Z,5.55
2022-08-28T21:40:19.555Z,5.35
2022-08-28T21:42:47.838Z,6.90
2022-08-28T21:45:15.621Z,5.25
2022-08-28T21:47:43.805Z,6.32
2022-08-28T21:50:11.919Z,4.20
2022-08-28T21:52:40.755Z,5.38
2022-08-28T21:55:16.182Z,5.82
2022-08-28T21:57:44.657Z,6.65
2022-08-28T22:00:17.553Z,5.65
2022-08-28T22:02:46.878Z,6.65
2022-08-28T22:05:15.626Z,6.80
2022-08-28T22:07:44.953Z,5.53
2022-08-28T22:10:12.972Z,8.23
2022-08-28T22:12:40.808Z,6.60
2022-08-28T22:15:08.968Z,5.38
2022-08-28T22:17:36.781Z,7.43
2022-08-28T22:20:05.128Z,5.32
2022-08-28T22:22:52.117Z,5.88
2022-08-28T22:25:19.986Z,4.82
2022-08-28T22:27:48.042Z,3.75
2022-08-28T22:30:17.923Z,7.55
2022-08-28T22:32:45.995Z,5.53
2022-08-28T22:35:14.018Z,5.70
2022-08-28T22:37:41.859Z,5.07
2022-08-28T22:40:13.067Z,8.70
2022-08-28T22:42:41.759Z,5.05
2022-08-28T22:45:10.241Z,4.95
2022-08-28T22:47:38.484Z,6.65
2022-08-28T22:50:08.483Z,3.40
2022-08-28T22:52:38.917Z,5.72
2022-08-28T22:55:12.539Z,6.75
2022-08-28T22:57:40.807Z,3.55
2022-08-28T23:00:11.808Z,3.92
2022-08-28T23:02:42.809Z,4.25
2022-08-28T23:05:10.879Z,4.18
2022-08-28T23:07:38.955Z,5.55
2022-08-28T23:10:07.701Z,8.27
2022-08-28T23:12:36.471Z,4.72
2022-08-28T23:15:08.229Z,4.35
2022-08-28T23:17:36.527Z,5.30
2022-08-28T23:20:10.055Z,8.30
2022-08-28T23:22:38.603Z,6.25
2022-08-28T23:25:15.981Z,5.07
2022-08-28T23:27:45.176Z,4.97
2022-08-28T23:30:15.324Z,8.38
2022-08-28T23:32:43.567Z,6.97
2022-08-28T23:35:13.625Z,4.70
2022-08-28T23:37:45.518Z,8.32
2022-08-28T23:40:25.052Z,4.72
2022-08-28T23:42:56.688Z,4.28
2022-08-28T23:45:25.552Z,3.38
2022-08-28T23:47:55.413Z,7.72
2022-08-28T23:50:24.356Z,9.45
2022-08-28T23:52:52.918Z,6.45
2022-08-28T23:55:21.232Z,8.55
2022-08-28T23:57:52.132Z,7.40
